Hovedside
METAR-TAF:

METAR-TAF

Lufthavner :

Kristiansund lufthavn. Kvernberget

Kristiansund, Norge

breddegrad: 63-07N, lengdegrad: 007-50E, høyde over havet: 6 m

Gjeldene værobservasjon

Denne rapporten ble laget for 36 minutter siden, klokken 04:20 UTC
Vind 4 kt fra Øst, skiftende mellom Nordøst og Sørøst
Temperatur 7°C
Luftfuktighet 76%
Trykk 1014 hPa
Sikt 10 km eller mer
Få skyer i en høyde av 4100 ft
Spredte skyer i en høyde av 5900 ft

METAR: ENKB 160420Z 09004KT 050V130 9999 FEW041 SCT059 07/03 Q1014 RMK WIND 745FT 16009KT

Tid: 06:56 (04:56 UTC)

Varsel

Denne rapporten ble laget for 2 timer og 56 minutter siden, klokken 02:00 UTC
Varsel gyldig fra 16. klokken 03 UTC til 16. klokken 12 UTC
Vind 5 kt fra Øst-sørøst
Sikt 10 km eller mer
Spredte skyer i en høyde av 4000 ft

TAF: ENKB 160200Z 1603/1612 12005KT 9999 SCT040

Værobservasjoner og værvarsel for over 4000 flyplasser (METAR- og TAF-rapporter).

Tilgjengelige stasjoner er representert av de røde og gule prikkene på kartet.

Hold musepekeren over prikken for å se navnet på stasjonen.

Klikk så for å se værobservasjoner og -varsler.

For å forandre kartet kan du klikke på den grønne knappen med svart kryss for å zoome inn, på den grønne knappen med strek for å zoome ut, eller på de grønne pilene for å se tilstøtende kart.


METAR-TAF: